Time;durP1;ratioP1;P1;durP2;ratioP2;P2;SDS_P1;SDS_P2;PMS_P1;PMS_P2;Temp;Humidity;BMP_temperature;BMP_pressure;BME280_temperature;BME280_humidity;BME280_pressure;Samples;Min_cycle;Max_cycle;Signal;HPM_P1;HPM_P2
2022/08/22 00:02:29;;;;;;;6.32;3.67;;;;;;;19.31;67.89;95479.59;5053235;28;20213;-84
2022/08/22 00:05:02;;;;;;;4.18;3.75;;;;;;;19.31;68.20;95476.97;5054001;28;20775;-83
2022/08/22 00:07:39;;;;;;;5.55;3.60;;;;;;;19.37;67.98;95481.28;5048164;28;20243;-82
2022/08/22 00:10:12;;;;;;;3.90;3.50;;;;;;;19.45;67.73;95478.28;5052836;28;20271;-84
2022/08/22 00:12:45;;;;;;;3.65;3.35;;;;;;;19.46;67.67;95476.47;5054156;28;20267;-83
2022/08/22 00:15:17;;;;;;;5.18;3.50;;;;;;;19.46;67.60;95473.84;5053941;28;20251;-83
2022/08/22 00:17:50;;;;;;;4.32;3.55;;;;;;;19.41;67.66;95469.34;5054474;28;20247;-84
2022/08/22 00:20:24;;;;;;;3.72;3.42;;;;;;;19.38;67.23;95479.47;5052868;28;20704;-83
2022/08/22 00:22:57;;;;;;;4.13;3.47;;;;;;;19.31;66.96;95487.44;5054168;28;20271;-83
2022/08/22 00:25:40;;;;;;;4.50;3.72;;;;;;;19.32;66.79;95481.19;5053830;28;20225;-82
2022/08/22 00:28:12;;;;;;;3.83;3.40;;;;;;;19.32;66.42;95475.97;5054085;28;20194;-83
2022/08/22 00:30:45;;;;;;;4.97;3.50;;;;;;;19.28;66.51;95477.44;5053287;28;20596;-83
2022/08/22 00:33:21;;;;;;;3.83;3.42;;;;;;;19.27;66.79;95470.63;5053926;28;20229;-84
2022/08/22 00:35:57;;;;;;;3.72;3.42;;;;;;;19.27;66.43;95475.84;5054620;28;20212;-83
2022/08/22 00:38:29;;;;;;;4.00;3.60;;;;;;;19.18;66.77;95479.88;5053475;28;20884;-83
2022/08/22 00:41:03;;;;;;;3.80;3.33;;;;;;;19.04;67.58;95481.97;5053182;28;20213;-83
2022/08/22 00:44:05;;;;;;;5.07;3.45;;;;;;;19.04;67.91;95487.19;5048111;28;20188;-84
2022/08/22 00:46:59;;;;;;;3.85;3.45;;;;;;;19.05;67.64;95474.94;5047959;28;20197;-84
2022/08/22 00:49:50;;;;;;;3.75;3.40;;;;;;;19.03;67.90;95480.38;5052490;28;20221;-84
2022/08/22 00:52:36;;;;;;;4.78;3.47;;;;;;;19.10;67.95;95475.00;5052779;28;20249;-83
2022/08/22 00:55:19;;;;;;;3.72;3.28;;;;;;;19.18;67.33;95474.66;5053461;28;20190;-83
2022/08/22 00:58:10;;;;;;;4.07;3.70;;;;;;;19.17;66.99;95478.28;5049345;28;20612;-83
2022/08/22 01:00:43;;;;;;;4.05;3.50;;;;;;;19.16;67.18;95474.09;5046944;28;20275;-83
2022/08/22 01:03:49;;;;;;;4.68;3.28;;;;;;;19.20;66.94;95473.41;5052840;28;20214;-83
2022/08/22 01:06:24;;;;;;;3.63;3.20;;;;;;;19.11;67.33;95479.22;5052643;28;20282;-84
2022/08/22 01:09:00;;;;;;;4.07;3.67;;;;;;;18.94;68.27;95481.75;5052932;28;20638;-82
2022/08/22 01:11:51;;;;;;;3.70;3.40;;;;;;;18.76;69.09;95493.16;5052188;28;20266;-83
2022/08/22 01:14:41;;;;;;;3.50;3.20;;;;;;;18.70;69.74;95481.00;5052951;28;20602;-83
2022/08/22 01:17:46;;;;;;;3.88;3.58;;;;;;;18.80;68.99;95486.44;5052888;28;20205;-83
2022/08/22 01:21:00;;;;;;;4.05;3.70;;;;;;;18.79;69.16;95476.25;5051898;28;20228;-84
2022/08/22 01:23:55;;;;;;;3.60;3.30;;;;;;;18.84;69.11;95477.16;5028795;28;20233;-83
2022/08/22 01:27:10;;;;;;;4.40;3.50;;;;;;;18.88;69.37;95474.84;5051856;28;20292;-83
2022/08/22 01:30:12;;;;;;;3.35;3.05;;;;;;;18.94;68.95;95473.94;5052512;28;20221;-83
2022/08/22 01:33:20;;;;;;;4.60;3.67;;;;;;;18.96;68.93;95469.28;5053217;28;20268;-83
2022/08/22 01:36:11;;;;;;;4.13;3.72;;;;;;;19.02;68.20;95460.53;5049201;28;20192;-83
2022/08/22 01:39:01;;;;;;;4.15;3.45;;;;;;;19.04;67.89;95463.72;5047407;28;20205;-82
2022/08/22 01:42:11;;;;;;;4.05;3.55;;;;;;;19.08;67.39;95461.41;5051918;28;20270;-83
2022/08/22 01:44:58;;;;;;;5.93;3.50;;;;;;;19.10;67.50;95467.97;4966562;28;20755;-83
2022/08/22 01:47:29;;;;;;;4.03;3.70;;;;;;;19.02;67.66;95467.56;4971849;28;20212;-84
2022/08/22 01:50:01;;;;;;;4.28;3.72;;;;;;;18.88;68.00;95477.47;5027063;28;20282;-84
2022/08/22 01:52:40;;;;;;;3.45;3.15;;;;;;;18.85;68.18;95476.13;5053761;28;20226;-83
2022/08/22 01:55:13;;;;;;;4.20;3.80;;;;;;;18.87;68.06;95466.22;5053050;28;20189;-83
2022/08/22 01:57:51;;;;;;;4.90;3.22;;;;;;;18.89;68.07;95472.00;5048252;28;20201;-82
2022/08/22 02:00:21;;;;;;;3.83;3.50;;;;;;;19.00;68.04;95469.63;5051649;28;20225;-84
2022/08/22 02:03:03;;;;;;;5.22;3.92;;;;;;;19.03;67.94;95466.56;5052526;28;20217;-83
2022/08/22 02:05:36;;;;;;;4.60;3.47;;;;;;;18.91;68.36;95464.75;5052171;28;20244;-82
2022/08/22 02:08:15;;;;;;;3.72;3.42;;;;;;;18.87;68.70;95470.66;5053037;28;20539;-83
2022/08/22 02:10:57;;;;;;;4.13;3.72;;;;;;;18.74;69.54;95465.69;5045951;28;20781;-83
2022/08/22 02:13:44;;;;;;;3.80;3.50;;;;;;;18.68;69.70;95467.41;5052108;28;20194;-83
2022/08/22 02:16:19;;;;;;;4.40;4.00;;;;;;;18.67;69.98;95470.25;5052313;28;20634;-82
2022/08/22 02:19:05;;;;;;;4.00;3.70;;;;;;;18.69;69.60;95465.59;5052388;28;20228;-84
2022/08/22 02:21:43;;;;;;;4.18;3.72;;;;;;;18.69;69.66;95469.00;5052041;28;20214;-83
2022/08/22 02:24:22;;;;;;;3.72;3.42;;;;;;;18.76;69.48;95466.25;5052394;28;20216;-82
2022/08/22 02:27:08;;;;;;;3.88;3.47;;;;;;;18.80;69.44;95478.63;5056703;28;20251;-83
2022/08/22 02:29:41;;;;;;;3.80;3.50;;;;;;;18.76;69.29;95474.88;5049259;28;20225;-83
2022/08/22 02:32:17;;;;;;;4.35;3.90;;;;;;;18.66;69.93;95479.91;5055075;28;20221;-83
2022/08/22 02:34:54;;;;;;;3.58;3.28;;;;;;;18.51;70.28;95474.31;5051009;28;20604;-83
2022/08/22 02:37:33;;;;;;;3.80;3.40;;;;;;;18.39;71.07;95474.34;5055863;28;20606;-83
2022/08/22 02:40:10;;;;;;;3.88;3.58;;;;;;;18.23;71.95;95470.59;5055184;28;20622;-83
2022/08/22 02:42:43;;;;;;;4.00;3.60;;;;;;;18.16;72.41;95482.94;5049420;28;20213;-83
2022/08/22 02:45:20;;;;;;;6.28;3.95;;;;;;;18.13;72.91;95480.00;5055769;28;20214;-83
2022/08/22 02:47:56;;;;;;;6.15;3.70;;;;;;;18.10;73.05;95483.03;5051267;28;20268;-83
2022/08/22 02:50:30;;;;;;;4.78;3.80;;;;;;;18.17;72.17;95484.53;5054269;28;20751;-84
2022/08/22 02:53:04;;;;;;;3.70;3.40;;;;;;;18.19;72.25;95489.53;5055942;28;20229;-83
2022/08/22 02:55:40;;;;;;;4.45;3.53;;;;;;;18.13;72.45;95488.59;5055264;28;20198;-82
2022/08/22 02:58:15;;;;;;;4.15;3.75;;;;;;;18.15;72.28;95488.38;5055477;28;20271;-83
2022/08/22 03:00:48;;;;;;;6.03;3.80;;;;;;;18.22;71.90;95482.03;5049438;28;20626;-83
2022/08/22 03:03:19;;;;;;;3.90;3.50;;;;;;;18.20;71.49;95484.09;5055889;28;20244;-84
2022/08/22 03:05:51;;;;;;;5.40;3.97;;;;;;;18.16;71.87;95490.75;5055475;28;20243;-83
2022/08/22 03:08:23;;;;;;;4.10;3.80;;;;;;;18.13;72.21;95487.81;5056402;28;20202;-83
2022/08/22 03:11:01;;;;;;;3.80;3.25;;;;;;;18.11;72.21;95488.03;5056016;28;20216;-83
2022/08/22 03:13:38;;;;;;;3.83;3.53;;;;;;;18.07;72.63;95491.34;5054872;28;20197;-83
2022/08/22 03:16:13;;;;;;;4.00;3.70;;;;;;;17.84;73.57;95489.47;5055753;28;20190;-83
2022/08/22 03:18:48;;;;;;;4.85;3.53;;;;;;;17.71;73.94;95485.25;5049520;28;20201;-83
2022/08/22 03:21:18;;;;;;;6.18;4.30;;;;;;;17.67;74.29;95486.72;5054894;28;20223;-83
2022/08/22 03:23:48;;;;;;;4.03;3.50;;;;;;;17.80;74.32;95480.53;5055549;28;20646;-84
2022/08/22 03:26:23;;;;;;;4.05;3.63;;;;;;;17.82;73.76;95481.88;5054473;28;20221;-83
2022/08/22 03:28:53;;;;;;;5.15;3.40;;;;;;;17.81;74.49;95482.09;5054702;28;20251;-83
2022/08/22 03:31:22;;;;;;;4.30;3.90;;;;;;;17.80;74.44;95486.53;5053693;28;20242;-84
2022/08/22 03:34:21;;;;;;;4.75;3.95;;;;;;;17.80;74.90;95480.53;5054610;28;20194;-83
2022/08/22 03:37:01;;;;;;;3.70;3.40;;;;;;;17.87;74.20;95483.84;5048814;28;20194;-83
2022/08/22 03:39:43;;;;;;;5.15;3.75;;;;;;;17.89;73.86;95484.41;5054144;28;20248;-82
2022/08/22 03:42:30;;;;;;;5.20;3.80;;;;;;;17.84;74.09;95495.47;5054269;28;20213;-83
2022/08/22 03:45:14;;;;;;;4.32;3.75;;;;;;;17.87;74.04;95494.25;5050963;28;20238;-83
2022/08/22 03:48:14;;;;;;;6.22;4.20;;;;;;;17.95;73.72;95499.13;5052030;28;20201;-83
2022/08/22 03:51:00;;;;;;;4.57;3.65;;;;;;;17.84;73.66;95498.09;5042805;28;20217;-83
2022/08/22 03:54:01;;;;;;;5.57;4.00;;;;;;;17.56;75.12;95497.84;5053993;28;20292;-83
2022/08/22 03:56:58;;;;;;;4.45;4.00;;;;;;;17.45;76.08;95503.84;5016040;28;20189;-83
2022/08/22 04:00:03;;;;;;;4.20;3.83;;;;;;;17.48;76.38;95500.78;5053476;28;20308;-83
2022/08/22 04:02:57;;;;;;;4.22;3.80;;;;;;;17.53;75.68;95506.09;5054261;28;20656;-83
2022/08/22 04:05:55;;;;;;;7.43;3.90;;;;;;;17.49;75.96;95508.38;5053851;28;20225;-83
2022/08/22 04:09:03;;;;;;;4.00;3.70;;;;;;;17.55;75.36;95501.47;5053717;28;21516;-84
2022/08/22 04:12:12;;;;;;;4.30;3.92;;;;;;;17.57;75.61;95504.66;5053267;28;20248;-83
2022/08/22 04:14:59;;;;;;;3.92;3.60;;;;;;;17.58;75.45;95501.84;5048353;28;20654;-83
2022/08/22 04:17:43;;;;;;;6.00;4.13;;;;;;;17.73;79.88;95504.06;5055036;28;20197;-83
2022/08/22 04:20:49;;;;;;;4.80;4.32;;;;;;;18.15;82.34;95506.63;5056023;28;20679;-84
2022/08/22 04:23:39;;;;;;;4.57;4.05;;;;;;;18.53;78.07;95516.59;5055432;28;20851;-83
2022/08/22 04:26:11;;;;;;;4.22;3.70;;;;;;;18.69;77.94;95504.72;5056249;28;20287;-83
2022/08/22 04:28:42;;;;;;;4.40;4.00;;;;;;;18.90;77.45;95510.13;5054910;28;20247;-83
2022/08/22 04:31:11;;;;;;;4.10;3.70;;;;;;;19.09;73.47;95504.75;5054870;28;20206;-83
2022/08/22 04:33:44;;;;;;;6.35;4.00;;;;;;;19.22;74.63;95499.28;5056123;28;20201;-82
2022/08/22 04:36:19;;;;;;;4.45;3.53;;;;;;;19.28;72.62;95500.94;5056742;28;20229;-84
2022/08/22 04:38:50;;;;;;;4.05;3.65;;;;;;;19.29;69.72;95498.09;5056310;28;20238;-83
2022/08/22 04:41:23;;;;;;;4.07;3.70;;;;;;;19.27;70.51;95500.16;5052803;28;20263;-83
2022/08/22 04:43:56;;;;;;;5.65;4.03;;;;;;;19.33;70.85;95495.81;5045300;28;20968;-83
2022/08/22 04:46:32;;;;;;;4.32;3.92;;;;;;;19.29;69.21;95487.66;5047719;28;20228;-84
2022/08/22 04:49:04;;;;;;;4.50;4.10;;;;;;;19.01;69.52;95502.50;5040522;28;20288;-82
2022/08/22 04:51:37;;;;;;;4.20;3.80;;;;;;;18.74;70.51;95508.22;5053453;28;20312;-83
2022/08/22 04:54:17;;;;;;;5.10;4.40;;;;;;;18.44;72.08;95510.16;5055018;28;20193;-84
2022/08/22 04:56:57;;;;;;;4.43;4.13;;;;;;;18.29;73.29;95516.59;5055679;28;20251;-84
2022/08/22 04:59:25;;;;;;;6.22;4.20;;;;;;;18.02;74.72;95515.44;5046505;28;20233;-84
2022/08/22 05:01:57;;;;;;;4.50;4.10;;;;;;;18.01;74.52;95524.28;5033586;28;20250;-84
2022/08/22 05:04:29;;;;;;;4.55;4.15;;;;;;;17.88;74.95;95511.47;5034541;28;20205;-83
2022/08/22 05:07:05;;;;;;;8.70;4.90;;;;;;;17.84;75.36;95518.94;5047135;28;20309;-83
2022/08/22 05:09:36;;;;;;;4.63;4.22;;;;;;;17.79;75.88;95513.59;5053423;28;20298;-83
2022/08/22 05:12:07;;;;;;;4.85;4.45;;;;;;;17.91;75.73;95519.59;5052826;28;20236;-83
2022/08/22 05:14:39;;;;;;;5.05;3.92;;;;;;;18.09;75.24;95523.94;5052794;28;20271;-83
2022/08/22 05:17:10;;;;;;;5.90;3.92;;;;;;;18.23;74.38;95519.31;5053626;28;20190;-82
2022/08/22 05:19:40;;;;;;;5.82;4.47;;;;;;;18.33;73.95;95534.41;5053540;28;20644;-84
2022/08/22 05:22:13;;;;;;;4.32;3.95;;;;;;;18.43;73.54;95530.22;5052870;28;20585;-83
2022/08/22 05:24:43;;;;;;;4.63;4.22;;;;;;;18.48;73.32;95522.50;5052500;28;20604;-83
2022/08/22 05:27:13;;;;;;;6.13;4.95;;;;;;;18.32;75.60;95535.41;5053502;28;20292;-82
2022/08/22 05:29:42;;;;;;;5.32;4.65;;;;;;;18.17;76.43;95539.25;5052292;28;20233;-82
2022/08/22 05:32:15;;;;;;;6.75;4.78;;;;;;;18.24;76.94;95534.75;5053112;28;20332;-83
2022/08/22 05:34:45;;;;;;;5.97;4.00;;;;;;;18.42;74.75;95541.66;5053020;28;20259;-83
2022/08/22 05:37:13;;;;;;;6.95;4.63;;;;;;;18.57;74.23;95543.81;5053551;28;20202;-83
2022/08/22 05:39:46;;;;;;;4.45;4.15;;;;;;;18.67;73.83;95535.44;5052771;28;20236;-84
2022/08/22 05:42:25;;;;;;;9.07;7.00;;;;;;;18.72;73.30;95533.75;5052354;28;20303;-83
2022/08/22 05:44:53;;;;;;;9.85;8.85;;;;;;;18.69;73.61;95536.00;5053255;28;20209;-82
2022/08/22 05:47:26;;;;;;;8.02;7.32;;;;;;;18.78;73.30;95540.66;5053398;28;20253;-83
2022/08/22 05:50:00;;;;;;;6.55;5.60;;;;;;;18.86;72.79;95545.53;5053120;28;20229;-83
2022/08/22 05:52:42;;;;;;;8.07;6.30;;;;;;;18.92;72.75;95547.22;5053316;28;20308;-84
2022/08/22 05:55:21;;;;;;;6.10;5.25;;;;;;;18.87;73.38;95547.09;5053374;28;20209;-83
2022/08/22 05:57:53;;;;;;;6.88;4.53;;;;;;;18.80;74.06;95554.28;5054110;28;20240;-84
2022/08/22 06:00:22;;;;;;;5.20;4.70;;;;;;;18.83;74.32;95553.03;5055517;28;20229;-84
2022/08/22 06:03:12;;;;;;;7.03;5.25;;;;;;;18.88;74.43;95548.69;5057690;28;20720;-83
2022/08/22 06:05:42;;;;;;;4.80;4.40;;;;;;;18.90;74.71;95556.28;5057045;28;20201;-83
2022/08/22 06:08:17;;;;;;;5.03;4.53;;;;;;;18.94;74.23;95550.41;5058128;28;20205;-83
2022/08/22 06:10:47;;;;;;;4.93;4.53;;;;;;;18.94;74.84;95555.63;5057086;28;20281;-83
2022/08/22 06:13:19;;;;;;;5.63;4.63;;;;;;;19.06;74.27;95554.78;5057703;28;20290;-84
2022/08/22 06:15:51;;;;;;;6.10;5.50;;;;;;;19.18;73.76;95550.34;5058109;28;20236;-84
2022/08/22 06:18:24;;;;;;;6.63;6.00;;;;;;;19.27;72.94;95551.56;5058175;28;20594;-83
2022/08/22 06:20:54;;;;;;;7.38;6.65;;;;;;;19.33;72.70;95551.44;5057253;28;20308;-83
2022/08/22 06:23:26;;;;;;;6.30;5.75;;;;;;;19.48;71.66;95556.16;5057165;28;20263;-83
2022/08/22 06:25:58;;;;;;;6.50;5.90;;;;;;;19.42;71.42;95551.88;5057702;28;20231;-83
2022/08/22 06:28:31;;;;;;;7.13;5.75;;;;;;;19.52;70.84;95546.88;5057802;28;20645;-84
2022/08/22 06:31:01;;;;;;;6.38;5.78;;;;;;;19.51;70.80;95549.72;5057586;28;20213;-84
2022/08/22 06:33:31;;;;;;;6.57;5.97;;;;;;;19.50;71.54;95551.53;5058348;28;20255;-82
2022/08/22 06:39:10;;;;;;;5.93;5.43;;;;;;;19.64;71.45;95557.25;5056808;28;20519;-83
2022/08/22 06:41:42;;;;;;;5.97;5.28;;;;;;;19.79;71.81;95559.38;5055603;28;20229;-83
2022/08/22 06:44:13;;;;;;;6.15;5.45;;;;;;;19.83;71.57;95563.88;5056730;28;20255;-83
2022/08/22 06:46:40;;;;;;;5.63;5.13;;;;;;;19.87;71.34;95561.59;5055763;28;20245;-83
2022/08/22 06:49:09;;;;;;;6.78;6.10;;;;;;;19.95;70.35;95562.03;5055881;28;20939;-83
2022/08/22 06:51:37;;;;;;;7.10;5.90;;;;;;;20.08;71.17;95565.34;5056314;28;20229;-84
2022/08/22 06:54:08;;;;;;;5.80;5.30;;;;;;;20.24;70.75;95560.13;5057583;28;20212;-84
2022/08/22 06:56:40;;;;;;;7.22;6.63;;;;;;;20.34;69.69;95552.47;5056328;28;20566;-83
2022/08/22 06:59:11;;;;;;;6.88;6.22;;;;;;;20.42;70.26;95553.91;5055826;28;20943;-83
2022/08/22 07:01:46;;;;;;;7.28;6.57;;;;;;;20.48;70.45;95560.00;5056038;28;20233;-83
2022/08/22 07:04:14;;;;;;;6.80;6.15;;;;;;;20.68;69.46;95562.94;5056691;28;20216;-84
2022/08/22 07:06:43;;;;;;;7.65;6.68;;;;;;;20.78;68.67;95560.47;5056039;28;20230;-83
2022/08/22 07:09:19;;;;;;;7.95;7.15;;;;;;;20.86;67.48;95557.41;5056083;28;20402;-83
2022/08/22 07:11:46;;;;;;;8.07;7.38;;;;;;;21.01;68.17;95557.63;5054567;28;20228;-83
2022/08/22 07:14:16;;;;;;;11.00;9.80;;;;;;;21.14;67.92;95569.59;5056486;28;20208;-84
2022/08/22 07:16:48;;;;;;;8.52;7.35;;;;;;;21.08;67.07;95562.69;5055577;28;20263;-83
2022/08/22 07:19:27;;;;;;;7.68;7.03;;;;;;;21.10;67.13;95557.22;5056273;28;20746;-84
2022/08/22 07:21:54;;;;;;;7.82;7.03;;;;;;;21.08;68.29;95557.47;5055237;28;20229;-84
2022/08/22 07:24:25;;;;;;;7.88;7.10;;;;;;;21.13;67.10;95559.34;5056284;28;20237;-83
2022/08/22 07:27:07;;;;;;;9.00;8.15;;;;;;;21.14;66.53;95556.50;5055681;28;20225;-83
2022/08/22 07:29:42;;;;;;;7.43;6.72;;;;;;;21.39;66.23;95553.41;5055571;28;20229;-84
2022/08/22 07:32:12;;;;;;;7.72;6.88;;;;;;;21.64;66.05;95553.69;5055602;28;20217;-83
2022/08/22 07:34:52;;;;;;;7.97;6.03;;;;;;;21.87;64.18;95554.44;5056604;28;20665;-83
2022/08/22 07:37:28;;;;;;;6.72;6.10;;;;;;;21.95;63.48;95549.53;5056628;28;20260;-82
2022/08/22 07:40:02;;;;;;;6.30;5.75;;;;;;;22.28;62.52;95553.78;5056341;28;20251;-82
2022/08/22 07:42:40;;;;;;;6.07;5.47;;;;;;;22.53;60.79;95547.91;5056564;28;20635;-82
2022/08/22 07:45:11;;;;;;;5.40;4.90;;;;;;;22.72;60.39;95549.09;5056190;28;20206;-83
2022/08/22 07:47:55;;;;;;;4.82;4.40;;;;;;;22.85;59.52;95547.13;5055840;28;20311;-83
2022/08/22 07:50:28;;;;;;;5.28;4.78;;;;;;;23.01;57.39;95544.31;5055281;28;20239;-83
2022/08/22 07:53:00;;;;;;;5.93;4.53;;;;;;;23.11;58.94;95546.19;5056348;28;20225;-83
2022/08/22 07:55:27;;;;;;;4.63;4.10;;;;;;;23.35;58.03;95552.59;5056389;28;20198;-83
2022/08/22 07:57:56;;;;;;;4.53;3.90;;;;;;;23.51;57.00;95545.53;5055764;28;20201;-83
2022/08/22 08:00:24;;;;;;;4.85;4.30;;;;;;;23.59;55.65;95544.28;5056220;28;20234;-83
2022/08/22 08:02:53;;;;;;;5.60;4.85;;;;;;;23.45;54.82;95549.22;5055536;28;20233;-82
2022/08/22 08:05:22;;;;;;;5.38;4.85;;;;;;;23.52;55.69;95546.38;5056063;28;20202;-82
2022/08/22 08:07:53;;;;;;;5.70;4.90;;;;;;;23.71;54.12;95552.72;5056020;28;20229;-84
2022/08/22 08:10:25;;;;;;;4.20;3.80;;;;;;;23.69;51.56;95546.94;5054199;28;20237;-82
2022/08/22 08:12:54;;;;;;;5.82;3.80;;;;;;;23.83;52.38;95548.03;5055794;28;20229;-83
2022/08/22 08:15:23;;;;;;;4.25;3.85;;;;;;;24.01;51.98;95542.28;5055655;28;20251;-83
2022/08/22 08:17:54;;;;;;;4.82;3.90;;;;;;;24.20;51.95;95539.13;5055703;28;20197;-83
2022/08/22 08:20:24;;;;;;;4.10;3.70;;;;;;;24.35;50.21;95539.16;5052806;28;20233;-83
2022/08/22 08:22:54;;;;;;;4.35;3.72;;;;;;;24.24;49.58;95542.84;5055130;28;20225;-82
2022/08/22 08:25:26;;;;;;;5.10;3.58;;;;;;;24.30;48.78;95539.16;5055198;28;20212;-83
2022/08/22 08:30:42;;;;;;;4.10;3.80;;;;;;;24.35;48.60;95542.56;5052850;28;20239;-83
2022/08/22 08:33:14;;;;;;;5.38;3.75;;;;;;;24.49;50.47;95528.88;5055075;28;20304;-83
2022/08/22 08:35:46;;;;;;;4.40;4.00;;;;;;;24.50;48.35;95533.88;5054717;28;20695;-83
2022/08/22 08:38:20;;;;;;;5.47;3.92;;;;;;;24.65;48.88;95536.47;5054449;28;20197;-83
2022/08/22 08:41:01;;;;;;;19.38;17.38;;;;;;;24.94;48.41;95534.09;5053005;28;20235;-83
2022/08/22 08:43:40;;;;;;;11.18;10.07;;;;;;;25.25;48.01;95532.13;5054966;28;20248;-84
2022/08/22 08:46:39;;;;;;;4.32;3.70;;;;;;;25.28;44.30;95526.31;5055043;28;20205;-83
2022/08/22 08:49:23;;;;;;;5.88;4.85;;;;;;;25.40;45.74;95532.06;5034821;28;20230;-83
2022/08/22 08:52:09;;;;;;;4.38;3.97;;;;;;;25.59;44.08;95528.81;5034217;28;20222;-83
2022/08/22 08:54:54;;;;;;;6.28;3.55;;;;;;;25.83;44.76;95528.94;5034714;28;20293;-82
2022/08/22 08:57:37;;;;;;;4.40;3.72;;;;;;;25.96;43.51;95531.00;5034682;28;20198;-83
2022/08/22 09:00:11;;;;;;;3.47;3.17;;;;;;;26.02;43.43;95530.66;5034355;28;20248;-81
2022/08/22 09:02:57;;;;;;;3.63;2.78;;;;;;;26.00;42.10;95524.09;5033891;28;20280;-83
2022/08/22 09:06:08;;;;;;;3.58;2.80;;;;;;;26.22;42.15;95521.03;5034498;28;20232;-82
2022/08/22 09:09:02;;;;;;;4.28;3.38;;;;;;;26.42;42.25;95523.53;5018310;28;20233;-82
2022/08/22 09:12:00;;;;;;;4.22;3.22;;;;;;;26.50;40.86;95525.56;5035083;28;20225;-84
2022/08/22 09:14:45;;;;;;;4.15;2.78;;;;;;;26.31;39.75;95519.41;5034695;28;20233;-84
2022/08/22 09:17:39;;;;;;;3.13;2.83;;;;;;;26.48;41.29;95519.78;5047694;28;20686;-83
2022/08/22 09:20:41;;;;;;;4.03;2.47;;;;;;;26.67;39.44;95525.16;5050237;28;20279;-83
2022/08/22 09:23:52;;;;;;;3.92;2.17;;;;;;;26.82;39.59;95525.78;5053289;28;20255;-83
2022/08/22 09:26:28;;;;;;;4.18;2.25;;;;;;;27.03;38.95;95529.00;5054377;28;20205;-83
2022/08/22 09:29:06;;;;;;;5.03;2.60;;;;;;;27.22;38.34;95525.63;5053413;28;20231;-83
2022/08/22 09:31:37;;;;;;;3.08;2.42;;;;;;;27.32;37.79;95526.31;5053220;28;20781;-84
2022/08/22 09:34:11;;;;;;;6.38;5.78;;;;;;;27.35;36.63;95525.72;5054427;28;20704;-83
2022/08/22 09:36:57;;;;;;;12.25;11.07;;;;;;;27.16;35.26;95527.53;5054648;28;20194;-83
2022/08/22 09:39:32;;;;;;;5.65;2.65;;;;;;;27.16;36.03;95520.41;5054464;28;20229;-82
2022/08/22 09:42:05;;;;;;;3.97;2.55;;;;;;;26.99;34.68;95514.00;5053093;28;20224;-82
2022/08/22 09:44:45;;;;;;;7.57;2.50;;;;;;;27.06;35.78;95517.09;5054051;28;20201;-83
2022/08/22 09:47:22;;;;;;;2.55;2.35;;;;;;;27.26;36.44;95522.16;5054308;28;20232;-83
2022/08/22 09:49:58;;;;;;;6.07;2.55;;;;;;;27.42;35.55;95518.22;5052733;28;20232;-84
2022/08/22 09:52:46;;;;;;;5.63;2.50;;;;;;;27.42;34.72;95526.16;5052658;28;20224;-83
2022/08/22 09:55:37;;;;;;;3.17;2.50;;;;;;;27.36;33.91;95526.50;5054911;28;20236;-84
2022/08/22 09:58:09;;;;;;;7.07;2.70;;;;;;;27.48;34.92;95521.59;5057076;28;20201;-84
2022/08/22 10:00:46;;;;;;;4.57;3.20;;;;;;;27.69;34.17;95520.31;5053058;28;20229;-83
2022/08/22 10:03:18;;;;;;;4.22;2.10;;;;;;;27.85;33.86;95518.22;5053049;28;20227;-84
2022/08/22 10:05:48;;;;;;;10.98;10.02;;;;;;;28.00;34.58;95512.69;5053738;28;20193;-83
2022/08/22 10:08:42;;;;;;;6.78;6.18;;;;;;;28.03;34.94;95514.75;5053666;28;20228;-83
2022/08/22 10:11:21;;;;;;;3.05;2.35;;;;;;;28.07;35.54;95499.88;5052453;28;20275;-83
2022/08/22 10:13:54;;;;;;;3.40;2.47;;;;;;;28.16;34.83;95514.03;5053007;28;20229;-82
2022/08/22 10:16:39;;;;;;;4.47;3.33;;;;;;;28.19;35.10;95515.31;5053446;28;20198;-83
2022/08/22 10:19:15;;;;;;;4.85;2.50;;;;;;;28.24;34.28;95517.91;5058459;28;20232;-82
2022/08/22 10:21:50;;;;;;;6.03;5.43;;;;;;;28.36;34.43;95512.94;5072582;28;20746;-83
2022/08/22 10:24:27;;;;;;;4.03;2.70;;;;;;;28.38;33.83;95510.78;5067023;28;20197;-84
2022/08/22 10:26:56;;;;;;;3.50;2.60;;;;;;;28.24;33.85;95504.66;5054228;28;20237;-83
2022/08/22 10:29:41;;;;;;;5.10;2.30;;;;;;;28.14;34.00;95524.09;5044840;28;20229;-83
2022/08/22 10:32:24;;;;;;;3.75;2.13;;;;;;;28.16;34.64;95521.19;5032679;28;20272;-83
2022/08/22 10:34:55;;;;;;;2.72;2.20;;;;;;;28.09;34.74;95510.97;5032839;28;20206;-84
2022/08/22 10:37:28;;;;;;;3.33;2.72;;;;;;;28.21;35.47;95507.91;5033323;28;20206;-83
2022/08/22 10:40:02;;;;;;;4.28;2.15;;;;;;;28.35;35.32;95505.28;5032027;28;20314;-82
2022/08/22 10:42:32;;;;;;;2.67;2.25;;;;;;;28.31;34.87;95506.94;5032999;28;20222;-83
2022/08/22 10:45:16;;;;;;;3.85;2.50;;;;;;;28.06;34.86;95503.59;5033147;28;20205;-83
2022/08/22 10:48:18;;;;;;;4.38;2.42;;;;;;;27.97;34.99;95504.53;5050115;28;20229;-83
2022/08/22 10:50:49;;;;;;;9.48;8.57;;;;;;;28.04;34.93;95503.09;5052107;28;20237;-83
2022/08/22 10:53:32;;;;;;;4.07;2.78;;;;;;;28.02;34.99;95507.91;5056818;28;20235;-84
2022/08/22 10:56:08;;;;;;;3.85;2.40;;;;;;;27.84;35.68;95506.06;5056783;28;20197;-82
2022/08/22 10:58:39;;;;;;;3.17;2.03;;;;;;;27.90;34.53;95514.72;5055935;28;20197;-83
2022/08/22 11:01:11;;;;;;;5.00;2.20;;;;;;;28.02;34.30;95515.06;5057024;28;20217;-82
2022/08/22 11:03:42;;;;;;;3.13;2.38;;;;;;;28.20;34.12;95514.25;5057306;28;20197;-83
2022/08/22 11:06:16;;;;;;;5.75;2.40;;;;;;;28.21;33.47;95515.84;5056922;28;20208;-83
2022/08/22 11:09:05;;;;;;;2.63;2.35;;;;;;;28.21;34.42;95512.41;5056504;28;20229;-83
2022/08/22 11:11:40;;;;;;;2.47;2.13;;;;;;;28.23;35.04;95516.34;5055875;28;20221;-83
2022/08/22 11:14:24;;;;;;;3.97;2.22;;;;;;;28.07;33.69;95515.78;5056471;28;20267;-82
2022/08/22 11:16:58;;;;;;;2.65;2.30;;;;;;;28.07;33.86;95514.97;5056121;28;20603;-82
2022/08/22 11:19:44;;;;;;;2.75;2.20;;;;;;;28.11;32.86;95510.66;5055469;28;20221;-83
2022/08/22 11:22:24;;;;;;;3.63;2.30;;;;;;;27.91;34.82;95508.31;5055323;28;20283;-83
2022/08/22 11:25:17;;;;;;;3.00;2.20;;;;;;;27.73;35.27;95509.91;5055377;28;20288;-82
2022/08/22 11:28:21;;;;;;;3.05;2.10;;;;;;;27.60;35.60;95511.41;5055192;28;20225;-83
2022/08/22 11:31:02;;;;;;;4.63;2.08;;;;;;;27.48;34.83;95511.03;5032893;28;20278;-83
2022/08/22 11:33:38;;;;;;;2.83;1.90;;;;;;;27.63;35.71;95508.22;5076252;28;20795;-83
2022/08/22 11:36:25;;;;;;;3.05;2.45;;;;;;;27.68;35.51;95518.72;5075921;28;20192;-83
2022/08/22 11:39:03;;;;;;;20.42;18.52;;;;;;;27.72;34.78;95517.06;5075168;28;20270;-82
2022/08/22 11:41:36;;;;;;;3.42;2.90;;;;;;;27.71;35.10;95515.47;5075085;28;20258;-83
2022/08/22 11:44:08;;;;;;;3.40;2.15;;;;;;;27.88;35.10;95507.06;5075727;28;20343;-82
2022/08/22 11:46:37;;;;;;;3.00;2.08;;;;;;;27.82;34.29;95502.91;5074848;28;20258;-82
2022/08/22 11:49:29;;;;;;;3.47;1.80;;;;;;;27.89;34.34;95511.28;5074684;28;20224;-82
2022/08/22 11:52:05;;;;;;;2.58;1.67;;;;;;;27.87;33.92;95510.00;5074705;28;20221;-83
2022/08/22 11:55:07;;;;;;;3.13;1.95;;;;;;;27.76;35.01;95504.84;5075185;28;20201;-83
2022/08/22 11:57:37;;;;;;;3.50;2.17;;;;;;;27.72;34.81;95503.81;5060027;28;20598;-83
2022/08/22 12:00:21;;;;;;;2.45;1.98;;;;;;;27.50;34.58;95493.81;5074097;28;20311;-82
2022/08/22 12:03:16;;;;;;;3.55;2.75;;;;;;;27.20;34.87;95507.41;5075005;28;20216;-83
2022/08/22 12:05:46;;;;;;;22.80;20.65;;;;;;;26.97;35.27;95511.63;5075122;28;20205;-82
2022/08/22 12:08:21;;;;;;;4.05;3.30;;;;;;;26.79;35.96;95510.47;5075447;28;20246;-84
2022/08/22 12:10:55;;;;;;;4.80;4.40;;;;;;;27.02;36.54;95492.28;5074266;28;20232;-83
2022/08/22 12:13:38;;;;;;;3.25;2.00;;;;;;;27.41;35.05;95497.34;5075173;28;20224;-83
2022/08/22 12:16:14;;;;;;;2.13;1.52;;;;;;;27.80;34.13;95499.75;5074539;28;20193;-82
2022/08/22 12:18:53;;;;;;;1.85;1.65;;;;;;;28.06;34.46;95490.38;5073831;28;20204;-82
2022/08/22 12:21:43;;;;;;;2.42;1.70;;;;;;;28.08;33.51;95488.22;5074249;28;20561;-83
2022/08/22 12:24:32;;;;;;;3.10;1.80;;;;;;;28.03;34.77;95483.00;5074352;28;20216;-84
2022/08/22 12:27:19;;;;;;;2.10;1.80;;;;;;;27.93;33.69;95483.13;5075604;28;20762;-83
2022/08/22 12:30:02;;;;;;;3.08;1.83;;;;;;;27.95;34.27;95477.56;5074585;28;20821;-83
2022/08/22 12:32:59;;;;;;;3.42;1.90;;;;;;;28.05;33.87;95474.78;5075413;28;20233;-82
2022/08/22 12:35:39;;;;;;;3.58;1.83;;;;;;;27.87;32.94;95475.59;5074864;28;20203;-83